Time;durP1;ratioP1;P1;durP2;ratioP2;P2;SDS_P1;SDS_P2;PMS_P1;PMS_P2;Temp;Humidity;BMP_temperature;BMP_pressure;BME280_temperature;BME280_humidity;BME280_pressure;Samples;Min_cycle;Max_cycle;Signal;HPM_P1;HPM_P2
2021/05/09 00:01:20;;;;;;;;;;;;;;;16.43;30.22;100916.50;5026913;28;98854;-78
2021/05/09 00:03:45;;;;;;;;;;;;;;;15.98;30.91;100909.28;5028176;27;99014;-79
2021/05/09 00:06:11;;;;;;;;;;;;;;;16.14;30.83;100904.81;5025782;27;97132;-79
2021/05/09 00:08:47;;;;;;;;;;;;;;;16.11;31.03;100897.00;5024177;27;97496;-79
2021/05/09 00:11:13;;;;;;;;;;;;;;;16.37;30.55;100899.03;5028575;27;99004;-79
2021/05/09 00:13:39;;;;;;;;;;;;;;;16.30;30.67;100898.53;5028369;27;98687;-79
2021/05/09 00:16:05;;;;;;;;;;;;;;;16.55;30.40;100900.66;5044673;28;96650;-78
2021/05/09 00:18:32;;;;;;;;;;;;;;;16.79;30.13;100901.09;5038380;27;96960;-78
2021/05/09 00:20:58;;;;;;;;;;;;;;;16.82;30.36;100895.56;5025098;28;98992;-79
2021/05/09 00:23:24;;;;;;;;;;;;;;;16.26;30.97;100897.00;5021115;28;98954;-79
2021/05/09 00:25:50;;;;;;;;;;;;;;;16.17;31.35;100889.50;5034384;28;98731;-79
2021/05/09 00:28:16;;;;;;;;;;;;;;;16.26;31.29;100889.00;5036881;28;97375;-79
2021/05/09 00:30:41;;;;;;;;;;;;;;;16.27;31.28;100885.41;5030398;28;97901;-79
2021/05/09 00:33:08;;;;;;;;;;;;;;;16.47;31.50;100886.91;5023018;27;98340;-79
2021/05/09 00:35:34;;;;;;;;;;;;;;;16.54;30.88;100887.44;5023967;27;97119;-79
2021/05/09 00:38:00;;;;;;;;;;;;;;;16.62;30.55;100893.19;5023825;27;97452;-78
2021/05/09 00:40:26;;;;;;;;;;;;;;;16.67;30.83;100902.63;5022325;28;99221;-78
2021/05/09 00:42:54;;;;;;;;;;;;;;;16.69;31.00;100897.22;5021833;27;98887;-78
2021/05/09 00:45:20;;;;;;;;;;;;;;;16.88;30.46;100887.19;5021360;28;96936;-78
2021/05/09 00:47:47;;;;;;;;;;;;;;;17.17;30.14;100890.78;5019244;28;97322;-78
2021/05/09 00:50:12;;;;;;;;;;;;;;;16.96;30.51;100889.41;5023001;28;101248;-79
2021/05/09 00:52:40;;;;;;;;;;;;;;;16.84;30.91;100885.66;5020920;27;98879;-77
2021/05/09 00:55:07;;;;;;;;;;;;;;;16.74;31.73;100873.78;5023622;28;96913;-78
2021/05/09 00:57:34;;;;;;;;;;;;;;;16.37;31.99;100884.84;5024920;27;97389;-79
2021/05/09 01:00:01;;;;;;;;;;;;;;;16.51;31.87;100876.91;5020071;27;98946;-77
2021/05/09 01:02:27;;;;;;;;;;;;;;;16.61;31.53;100875.44;5020170;28;99212;-79
2021/05/09 01:04:53;;;;;;;;;;;;;;;16.63;31.47;100865.56;5024744;27;97411;-78
2021/05/09 01:07:19;;;;;;;;;;;;;;;16.34;31.89;100864.56;5021630;27;96894;-79
2021/05/09 01:09:46;;;;;;;;;;;;;;;16.27;32.17;100871.19;5022895;27;98930;-79
2021/05/09 01:12:12;;;;;;;;;;;;;;;16.67;31.70;100878.63;5017827;27;99616;-78
2021/05/09 01:14:38;;;;;;;;;;;;;;;16.33;32.40;100873.50;5024539;27;98144;-79
2021/05/09 01:17:04;;;;;;;;;;;;;;;16.61;32.46;100854.13;5018616;28;98562;-79
2021/05/09 01:19:30;;;;;;;;;;;;;;;16.32;32.30;100859.31;5018216;28;98903;-79
2021/05/09 01:21:57;;;;;;;;;;;;;;;16.27;32.71;100855.19;5018078;28;101589;-78
2021/05/09 01:24:23;;;;;;;;;;;;;;;16.20;32.90;100849.34;5021371;28;97696;-79
2021/05/09 01:26:48;;;;;;;;;;;;;;;16.06;33.00;100846.63;5020169;28;97270;-77
2021/05/09 01:29:14;;;;;;;;;;;;;;;16.07;32.93;100845.66;5021130;28;98849;-79
2021/05/09 01:31:42;;;;;;;;;;;;;;;16.15;32.96;100840.75;5014898;27;101429;-79
2021/05/09 01:34:08;;;;;;;;;;;;;;;16.34;32.71;100849.41;5020593;27;97482;-78
2021/05/09 01:36:34;;;;;;;;;;;;;;;16.20;33.43;100835.16;5018491;28;97387;-79
2021/05/09 01:39:00;;;;;;;;;;;;;;;15.93;33.40;100840.25;5033038;28;99027;-79
2021/05/09 01:41:26;;;;;;;;;;;;;;;15.99;33.39;100831.91;5035628;28;98956;-79
2021/05/09 01:43:52;;;;;;;;;;;;;;;16.27;33.41;100831.22;5028423;28;96913;-79
2021/05/09 01:46:18;;;;;;;;;;;;;;;16.18;33.09;100826.38;5034979;27;97094;-79
2021/05/09 01:48:44;;;;;;;;;;;;;;;16.20;33.40;100821.84;5035128;27;98853;-79
2021/05/09 01:51:10;;;;;;;;;;;;;;;16.09;33.43;100819.75;5031584;27;99172;-79
2021/05/09 01:53:36;;;;;;;;;;;;;;;16.22;33.61;100820.78;5035076;27;96785;-79
2021/05/09 01:56:03;;;;;;;;;;;;;;;16.13;33.73;100817.81;5034889;27;96865;-79
2021/05/09 01:58:29;;;;;;;;;;;;;;;16.37;33.62;100815.50;5030123;28;98959;-79
2021/05/09 02:00:54;;;;;;;;;;;;;;;16.16;33.27;100815.81;5035584;27;98769;-79
2021/05/09 02:03:20;;;;;;;;;;;;;;;16.35;33.84;100816.47;5035643;27;96746;-79
2021/05/09 02:05:46;;;;;;;;;;;;;;;16.07;33.89;100819.00;5036446;27;97829;-79
2021/05/09 02:08:12;;;;;;;;;;;;;;;15.89;34.08;100814.69;5036174;27;97821;-80
2021/05/09 02:10:38;;;;;;;;;;;;;;;16.10;33.95;100812.63;5035640;27;99148;-79
2021/05/09 02:13:05;;;;;;;;;;;;;;;15.72;34.59;100813.00;5035697;28;96885;-79
2021/05/09 02:15:31;;;;;;;;;;;;;;;15.98;34.38;100806.19;5038239;27;97084;-79
2021/05/09 02:17:57;;;;;;;;;;;;;;;15.97;34.15;100807.13;5048169;27;99068;-79
2021/05/09 02:20:22;;;;;;;;;;;;;;;15.99;34.56;100805.25;5055962;27;97696;-79
2021/05/09 02:22:48;;;;;;;;;;;;;;;16.19;33.94;100807.66;5055872;28;96578;-78
2021/05/09 02:25:14;;;;;;;;;;;;;;;16.26;33.97;100806.34;5056476;27;97529;-79
2021/05/09 02:27:40;;;;;;;;;;;;;;;16.08;34.06;100806.56;5055732;28;97821;-76
2021/05/09 02:30:09;;;;;;;;;;;;;;;16.10;34.13;100809.97;5047870;27;97667;-79
2021/05/09 02:32:35;;;;;;;;;;;;;;;15.97;34.46;100801.81;5045897;28;96567;-80
2021/05/09 02:35:01;;;;;;;;;;;;;;;16.07;34.49;100808.34;5032519;27;97059;-79
2021/05/09 02:37:27;;;;;;;;;;;;;;;15.97;34.24;100808.94;5021894;28;100142;-78
2021/05/09 02:39:53;;;;;;;;;;;;;;;16.03;34.45;100805.94;5033746;28;97858;-79
2021/05/09 02:42:19;;;;;;;;;;;;;;;15.90;34.50;100803.09;5038352;27;96769;-78
2021/05/09 02:44:45;;;;;;;;;;;;;;;16.17;34.31;100806.88;5032777;28;96862;-78
2021/05/09 02:47:27;;;;;;;;;;;;;;;16.05;34.36;100801.38;5037966;27;99175;-80
2021/05/09 02:49:53;;;;;;;;;;;;;;;16.30;34.34;100799.88;5041991;27;98697;-79
2021/05/09 02:52:19;;;;;;;;;;;;;;;16.29;34.42;100795.47;5048657;27;97152;-79
2021/05/09 02:54:45;;;;;;;;;;;;;;;16.34;34.15;100801.41;5040102;27;97371;-79
2021/05/09 02:57:10;;;;;;;;;;;;;;;16.45;34.46;100805.25;5034531;27;98871;-79
2021/05/09 02:59:36;;;;;;;;;;;;;;;16.11;35.09;100809.88;5036366;27;99149;-79
2021/05/09 03:02:02;;;;;;;;;;;;;;;16.34;34.49;100806.72;5036790;27;98712;-80
2021/05/09 03:04:29;;;;;;;;;;;;;;;16.31;34.50;100800.72;5035484;27;97678;-80
2021/05/09 03:06:55;;;;;;;;;;;;;;;16.37;34.50;100811.03;5038089;28;99345;-80
2021/05/09 03:09:20;;;;;;;;;;;;;;;16.24;34.84;100815.38;5037643;27;99323;-80
2021/05/09 03:11:46;;;;;;;;;;;;;;;16.19;34.69;100810.31;5033900;28;96893;-79
2021/05/09 03:14:12;;;;;;;;;;;;;;;16.22;34.80;100803.94;5032395;28;97187;-80
2021/05/09 03:16:38;;;;;;;;;;;;;;;16.24;34.85;100812.69;5035850;27;98076;-80
2021/05/09 03:19:04;;;;;;;;;;;;;;;15.64;35.91;100803.69;5034821;28;100785;-80
2021/05/09 03:21:30;;;;;;;;;;;;;;;15.94;35.86;100813.53;5037820;27;96902;-78
2021/05/09 03:23:56;;;;;;;;;;;;;;;15.79;35.94;100810.84;5038670;28;96837;-80
2021/05/09 03:26:22;;;;;;;;;;;;;;;16.15;35.39;100807.88;5036497;28;101295;-79
2021/05/09 03:28:48;;;;;;;;;;;;;;;15.60;36.16;100807.50;5042854;27;98887;-78
2021/05/09 03:31:13;;;;;;;;;;;;;;;15.74;36.10;100803.13;5044923;28;96716;-79
2021/05/09 03:33:40;;;;;;;;;;;;;;;15.84;35.81;100803.44;5036965;28;97508;-79
2021/05/09 03:36:06;;;;;;;;;;;;;;;15.85;35.92;100811.38;5037579;27;98163;-79
2021/05/09 03:38:33;;;;;;;;;;;;;;;16.03;35.60;100806.78;5037352;28;98895;-80
2021/05/09 03:40:58;;;;;;;;;;;;;;;16.02;35.66;100796.22;5034454;28;97391;-80
2021/05/09 03:43:24;;;;;;;;;;;;;;;15.79;36.13;100798.38;5038958;28;96871;-79
2021/05/09 03:45:50;;;;;;;;;;;;;;;15.73;36.56;100797.88;5037977;27;98765;-80
2021/05/09 03:48:16;;;;;;;;;;;;;;;15.79;36.37;100793.06;5035591;28;101423;-80
2021/05/09 03:50:42;;;;;;;;;;;;;;;15.90;36.12;100805.75;5037407;27;96838;-79
2021/05/09 03:53:07;;;;;;;;;;;;;;;16.02;36.11;100798.88;5039892;27;97176;-80
2021/05/09 03:55:34;;;;;;;;;;;;;;;15.99;36.13;100794.59;5038381;27;99989;-78
2021/05/09 03:58:01;;;;;;;;;;;;;;;15.97;36.06;100804.47;5036306;27;100936;-78
2021/05/09 04:00:26;;;;;;;;;;;;;;;15.91;36.45;100788.84;5037339;27;96919;-79
2021/05/09 04:02:52;;;;;;;;;;;;;;;16.04;36.02;100795.19;5034031;28;98090;-79
2021/05/09 04:05:18;;;;;;;;;;;;;;;16.05;36.16;100796.91;5039313;27;100297;-79
2021/05/09 04:07:44;;;;;;;;;;;;;;;16.20;35.92;100790.72;5037700;28;98702;-79
2021/05/09 04:10:10;;;;;;;;;;;;;;;16.29;35.62;100787.47;5038993;27;96839;-79
2021/05/09 04:12:37;;;;;;;;;;;;;;;16.08;36.00;100788.72;5040416;27;96885;-78
2021/05/09 04:15:06;;;;;;;;;;;;;;;16.10;35.87;100786.84;5037557;28;99274;-79
2021/05/09 04:17:32;;;;;;;;;;;;;;;16.09;36.01;100774.44;5037911;27;98921;-79
2021/05/09 04:19:58;;;;;;;;;;;;;;;16.06;36.09;100779.97;5055751;27;96769;-78
2021/05/09 04:22:23;;;;;;;;;;;;;;;15.95;36.37;100771.72;5055919;27;96731;-79
2021/05/09 04:24:49;;;;;;;;;;;;;;;16.11;36.31;100783.22;5053531;27;98092;-78
2021/05/09 04:27:15;;;;;;;;;;;;;;;16.10;36.22;100778.84;5052250;27;97930;-79
2021/05/09 04:29:42;;;;;;;;;;;;;;;15.79;36.86;100776.22;5050783;27;96731;-78
2021/05/09 04:32:07;;;;;;;;;;;;;;;15.83;36.81;100772.41;5041148;28;96855;-79
2021/05/09 04:34:33;;;;;;;;;;;;;;;15.92;36.73;100772.78;5042802;27;97637;-79
2021/05/09 04:36:59;;;;;;;;;;;;;;;15.94;36.70;100776.22;5030164;28;98893;-80
2021/05/09 04:39:25;;;;;;;;;;;;;;;16.04;36.52;100767.66;5043834;27;97034;-79
2021/05/09 04:41:51;;;;;;;;;;;;;;;15.94;36.68;100772.69;5044696;28;96835;-79
2021/05/09 04:44:17;;;;;;;;;;;;;;;16.15;36.39;100768.75;5054412;28;98915;-78
2021/05/09 04:46:43;;;;;;;;;;;;;;;16.59;35.76;100775.97;5041105;27;97535;-79
2021/05/09 04:49:12;;;;;;;;;;;;;;;16.28;35.99;100767.09;5031250;28;96885;-79
2021/05/09 04:51:38;;;;;;;;;;;;;;;16.49;36.05;100764.13;5038362;27;96846;-77
2021/05/09 04:54:12;;;;;;;;;;;;;;;16.66;35.60;100767.53;5037480;28;99227;-81
2021/05/09 04:56:38;;;;;;;;;;;;;;;16.79;35.22;100765.00;5037207;28;99132;-80
2021/05/09 04:59:03;;;;;;;;;;;;;;;16.83;35.22;100766.50;5035338;27;96939;-79
2021/05/09 05:01:32;;;;;;;;;;;;;;;17.26;34.61;100771.88;5035836;27;98600;-81
2021/05/09 05:03:59;;;;;;;;;;;;;;;17.19;34.72;100766.06;5034873;27;97838;-77
2021/05/09 05:06:24;;;;;;;;;;;;;;;17.06;34.84;100773.97;5036263;28;98632;-78
2021/05/09 05:08:50;;;;;;;;;;;;;;;17.25;34.46;100783.50;5035566;28;96743;-80
2021/05/09 05:11:16;;;;;;;;;;;;;;;17.39;34.42;100772.81;5037861;27;98015;-80
2021/05/09 05:13:42;;;;;;;;;;;;;;;17.21;34.60;100781.97;5035027;27;97567;-79
2021/05/09 05:16:08;;;;;;;;;;;;;;;17.66;34.05;100770.22;5038472;27;98810;-79
2021/05/09 05:18:34;;;;;;;;;;;;;;;17.51;34.02;100778.25;5039645;27;97378;-77
2021/05/09 05:21:02;;;;;;;;;;;;;;;17.34;34.39;100772.22;5040297;28;97636;-77
2021/05/09 05:23:28;;;;;;;;;;;;;;;17.70;33.90;100761.91;5041897;27;97846;-78
2021/05/09 05:25:54;;;;;;;;;;;;;;;18.08;33.40;100774.59;5038196;27;98974;-78
2021/05/09 05:28:20;;;;;;;;;;;;;;;17.98;33.09;100776.16;5043675;28;96755;-79
2021/05/09 05:30:46;;;;;;;;;;;;;;;18.12;33.40;100778.75;5049201;27;97780;-79
2021/05/09 05:33:23;;;;;;;;;;;;;;;18.85;32.04;100774.66;5049710;27;99250;-78
2021/05/09 05:35:49;;;;;;;;;;;;;;;19.12;31.41;100774.56;5042100;27;97061;-79
2021/05/09 05:38:16;;;;;;;;;;;;;;;19.29;31.33;100770.72;5039709;27;96716;-79
2021/05/09 05:40:42;;;;;;;;;;;;;;;19.39;31.28;100774.44;5037371;27;96670;-79
2021/05/09 05:43:07;;;;;;;;;;;;;;;19.06;31.61;100778.53;5029279;27;101481;-78
2021/05/09 05:45:33;;;;;;;;;;;;;;;18.82;32.21;100779.41;5036131;27;98976;-78
2021/05/09 05:47:59;;;;;;;;;;;;;;;18.42;33.01;100790.09;5035417;27;96931;-78
2021/05/09 05:50:25;;;;;;;;;;;;;;;18.14;33.60;100787.53;5034918;27;96808;-78
2021/05/09 05:52:50;;;;;;;;;;;;;;;18.30;33.50;100788.25;5034024;28;99029;-78
2021/05/09 05:55:17;;;;;;;;;;;;;;;18.46;33.41;100786.25;5030409;27;98707;-78
2021/05/09 05:57:43;;;;;;;;;;;;;;;18.45;33.44;100787.22;5038509;28;96747;-78
2021/05/09 06:00:09;;;;;;;;;;;;;;;18.97;32.53;100789.06;5034146;27;97043;-78
2021/05/09 06:02:35;;;;;;;;;;;;;;;19.33;32.04;100791.81;5036536;27;98934;-78
2021/05/09 06:05:01;;;;;;;;;;;;;;;18.74;33.26;100781.72;5036942;27;98881;-79
2021/05/09 06:07:28;;;;;;;;;;;;;;;19.24;32.31;100778.19;5049938;27;96807;-79
2021/05/09 06:09:54;;;;;;;;;;;;;;;19.68;31.52;100775.91;5047986;28;99186;-80
2021/05/09 06:12:20;;;;;;;;;;;;;;;19.53;32.21;100777.00;5055175;27;98171;-79
2021/05/09 06:14:46;;;;;;;;;;;;;;;19.81;31.83;100783.91;5058705;27;98868;-79
2021/05/09 06:17:12;;;;;;;;;;;;;;;19.42;32.30;100783.13;5052079;27;96303;-78
2021/05/09 06:19:38;;;;;;;;;;;;;;;19.65;32.16;100783.31;5053392;27;95991;-78
2021/05/09 06:22:03;;;;;;;;;;;;;;;19.65;32.14;100777.94;5056914;28;97735;-79
2021/05/09 06:24:29;;;;;;;;;;;;;;;19.49;32.10;100779.03;5039494;27;98823;-79
2021/05/09 06:26:55;;;;;;;;;;;;;;;19.41;32.64;100781.41;5038759;28;96768;-78
2021/05/09 06:29:22;;;;;;;;;;;;;;;19.72;32.35;100780.06;5036745;27;96870;-78
2021/05/09 06:31:49;;;;;;;;;;;;;;;20.19;31.56;100767.66;5033579;28;98915;-78
2021/05/09 06:34:15;;;;;;;;;;;;;;;20.61;31.19;100774.31;5036211;28;98970;-78
2021/05/09 06:36:41;;;;;;;;;;;;;;;20.21;31.42;100776.44;5037480;28;97048;-79
2021/05/09 06:39:07;;;;;;;;;;;;;;;19.92;32.33;100775.94;5046590;27;96989;-79
2021/05/09 06:41:34;;;;;;;;;;;;;;;19.84;32.43;100772.94;5037299;28;97075;-78
2021/05/09 06:44:03;;;;;;;;;;;;;;;20.38;31.57;100778.75;5035749;28;99143;-78
2021/05/09 06:46:30;;;;;;;;;;;;;;;20.32;31.82;100779.19;5033708;27;98623;-79
2021/05/09 06:48:55;;;;;;;;;;;;;;;20.41;31.80;100780.34;5034921;27;97013;-79
2021/05/09 06:51:21;;;;;;;;;;;;;;;20.65;31.31;100786.53;5035036;27;99284;-79
2021/05/09 06:53:47;;;;;;;;;;;;;;;20.38;31.27;100776.06;5036604;27;97601;-78
2021/05/09 06:56:13;;;;;;;;;;;;;;;20.29;31.49;100777.56;5037116;28;97664;-79
2021/05/09 06:58:40;;;;;;;;;;;;;;;19.98;32.18;100775.47;5038137;27;97124;-78
2021/05/09 07:01:06;;;;;;;;;;;;;;;20.80;30.67;100765.69;5035660;28;99030;-78
2021/05/09 07:03:33;;;;;;;;;;;;;;;21.76;29.19;100769.63;5036796;28;99237;-78
2021/05/09 07:06:22;;;;;;;;;;;;;;;22.22;28.67;100766.72;5035205;27;97540;-77
2021/05/09 07:08:47;;;;;;;;;;;;;;;22.77;28.20;100773.72;5026103;27;97015;-78
2021/05/09 07:11:13;;;;;;;;;;;;;;;23.27;27.21;100758.50;5037738;27;101327;-78
2021/05/09 07:13:39;;;;;;;;;;;;;;;23.41;27.00;100773.47;5041011;27;98379;-78
2021/05/09 07:16:05;;;;;;;;;;;;;;;23.41;26.99;100765.38;5040779;28;96774;-79
2021/05/09 07:18:32;;;;;;;;;;;;;;;23.44;27.13;100765.09;5042184;27;97442;-79
2021/05/09 07:21:08;;;;;;;;;;;;;;;22.71;27.97;100767.97;5041382;27;98918;-79
2021/05/09 07:23:37;;;;;;;;;;;;;;;22.71;28.32;100767.97;5040691;27;98706;-78
2021/05/09 07:26:03;;;;;;;;;;;;;;;23.18;28.22;100767.41;5038003;28;97144;-78
2021/05/09 07:28:29;;;;;;;;;;;;;;;22.36;28.81;100761.03;5037194;27;97449;-79
2021/05/09 07:30:54;;;;;;;;;;;;;;;21.90;29.90;100765.81;5036861;27;99598;-79
2021/05/09 07:33:20;;;;;;;;;;;;;;;22.28;29.72;100750.06;5039949;28;98783;-80
2021/05/09 07:35:46;;;;;;;;;;;;;;;22.54;29.39;100766.69;5042583;28;96838;-80
2021/05/09 07:38:13;;;;;;;;;;;;;;;22.53;29.38;100757.75;5034964;27;96949;-79
2021/05/09 07:40:39;;;;;;;;;;;;;;;21.88;30.37;100753.34;5049011;28;102653;-77
2021/05/09 07:43:07;;;;;;;;;;;;;;;22.66;29.33;100747.63;5045657;27;98721;-79
2021/05/09 07:45:34;;;;;;;;;;;;;;;22.76;29.36;100738.81;5050521;27;97115;-79
2021/05/09 07:48:00;;;;;;;;;;;;;;;22.82;29.43;100743.66;5051398;27;96936;-77
2021/05/09 07:50:27;;;;;;;;;;;;;;;23.19;28.94;100744.84;5042035;28;98949;-78
2021/05/09 07:52:53;;;;;;;;;;;;;;;23.35;29.15;100737.13;5049455;27;98313;-80
2021/05/09 07:55:20;;;;;;;;;;;;;;;23.04;29.10;100743.50;5050655;28;96641;-79
2021/05/09 07:57:46;;;;;;;;;;;;;;;23.32;28.84;100729.28;5045188;27;98409;-78
2021/05/09 08:00:16;;;;;;;;;;;;;;;23.42;28.67;100737.44;5041870;27;99071;-79
2021/05/09 08:02:42;;;;;;;;;;;;;;;23.87;28.18;100735.16;5036817;27;98822;-78
2021/05/09 08:05:09;;;;;;;;;;;;;;;23.73;28.43;100741.81;5037757;28;97017;-79
2021/05/09 08:07:35;;;;;;;;;;;;;;;23.50;28.63;100739.47;5037793;27;97914;-78
2021/05/09 08:10:01;;;;;;;;;;;;;;;23.13;29.15;100733.75;5041044;27;97690;-78
2021/05/09 08:12:27;;;;;;;;;;;;;;;23.05;29.50;100746.06;5043193;27;99096;-78
2021/05/09 08:14:53;;;;;;;;;;;;;;;23.25;29.23;100738.91;5043161;28;97977;-79
2021/05/09 08:17:19;;;;;;;;;;;;;;;23.31;29.07;100741.06;5044985;27;97287;-77
2021/05/09 08:19:45;;;;;;;;;;;;;;;23.69;28.76;100737.69;5034622;27;98934;-78
2021/05/09 08:22:11;;;;;;;;;;;;;;;24.34;27.96;100735.34;5046569;27;98791;-79
2021/05/09 08:24:37;;;;;;;;;;;;;;;24.53;27.51;100746.13;5045825;27;96818;-79
2021/05/09 08:27:05;;;;;;;;;;;;;;;24.68;27.40;100741.97;5042874;27;96882;-78
2021/05/09 08:29:32;;;;;;;;;;;;;;;24.08;28.22;100741.28;5044105;27;98368;-79
2021/05/09 08:31:59;;;;;;;;;;;;;;;24.65;27.41;100747.69;5050927;28;99882;-78
2021/05/09 08:34:25;;;;;;;;;;;;;;;24.29;27.92;100740.31;5048718;27;97303;-79
2021/05/09 08:36:50;;;;;;;;;;;;;;;23.68;28.35;100737.81;5044504;27;96916;-79
2021/05/09 08:39:16;;;;;;;;;;;;;;;23.84;28.28;100736.28;5047768;27;97681;-79
2021/05/09 08:41:42;;;;;;;;;;;;;;;23.49;28.91;100732.38;5052747;27;97560;-79
2021/05/09 08:44:08;;;;;;;;;;;;;;;23.85;28.81;100723.63;5043306;27;96897;-80
2021/05/09 08:46:35;;;;;;;;;;;;;;;24.03;28.48;100713.00;5029375;27;96829;-78
2021/05/09 08:49:02;;;;;;;;;;;;;;;24.10;28.61;100706.88;5037732;27;97840;-78
2021/05/09 08:51:28;;;;;;;;;;;;;;;23.73;29.04;100706.72;5038287;27;98853;-78
2021/05/09 08:53:55;;;;;;;;;;;;;;;24.32;28.58;100715.72;5039785;27;96888;-76
2021/05/09 08:56:21;;;;;;;;;;;;;;;24.23;28.78;100701.22;5036234;27;97450;-78
2021/05/09 08:58:47;;;;;;;;;;;;;;;24.09;28.72;100710.56;5037302;27;97945;-78
2021/05/09 09:01:13;;;;;;;;;;;;;;;24.34;28.49;100711.91;5033384;27;97682;-77
2021/05/09 09:03:39;;;;;;;;;;;;;;;24.62;27.96;100711.00;5035248;27;96990;-76
2021/05/09 09:06:09;;;;;;;;;;;;;;;25.19;27.73;100711.00;5031860;27;97037;-78
2021/05/09 09:08:48;;;;;;;;;;;;;;;25.10;27.68;100710.03;5029544;27;97850;-77
2021/05/09 09:11:13;;;;;;;;;;;;;;;24.52;28.39;100722.81;5032635;27;99176;-78
2021/05/09 09:13:39;;;;;;;;;;;;;;;25.17;27.56;100703.03;5033900;27;97170;-78
2021/05/09 09:16:06;;;;;;;;;;;;;;;25.28;28.25;100704.69;5034307;28;96960;-77
2021/05/09 09:18:33;;;;;;;;;;;;;;;25.40;27.61;100708.91;5039369;27;99700;-78
2021/05/09 09:21:21;;;;;;;;;;;;;;;24.72;28.18;100702.88;5030553;27;99917;-76
2021/05/09 09:23:48;;;;;;;;;;;;;;;24.77;28.04;100700.59;5038946;27;97788;-76
2021/05/09 09:26:24;;;;;;;;;;;;;;;24.75;27.83;100699.00;5034872;27;97137;-77
2021/05/09 09:28:52;;;;;;;;;;;;;;;25.05;27.83;100703.38;5033468;28;100703;-79
2021/05/09 09:31:34;;;;;;;;;;;;;;;24.81;28.06;100701.97;5041934;28;100232;-77
2021/05/09 09:34:00;;;;;;;;;;;;;;;24.91;27.59;100697.44;5041478;28;97510;-76
2021/05/09 09:36:27;;;;;;;;;;;;;;;24.66;28.42;100689.97;5042356;27;96796;-78
2021/05/09 09:38:52;;;;;;;;;;;;;;;24.77;28.67;100689.78;5024965;28;98355;-78
2021/05/09 09:41:20;;;;;;;;;;;;;;;25.14;28.29;100683.56;5029913;28;99164;-78
2021/05/09 09:44:00;;;;;;;;;;;;;;;24.85;28.29;100681.78;5034552;27;97014;-78
2021/05/09 09:46:26;;;;;;;;;;;;;;;25.31;28.13;100680.06;5035738;27;96914;-77
2021/05/09 09:48:53;;;;;;;;;;;;;;;25.18;28.28;100683.09;5033266;28;98922;-77
2021/05/09 09:51:19;;;;;;;;;;;;;;;25.76;27.64;100680.09;5030183;28;99383;-78
2021/05/09 09:53:45;;;;;;;;;;;;;;;25.59;27.71;100675.50;5027533;27;97065;-77
2021/05/09 09:56:12;;;;;;;;;;;;;;;25.66;27.30;100672.03;5030688;28;97497;-77
2021/05/09 09:58:42;;;;;;;;;;;;;;;25.67;27.42;100675.56;5032511;28;98954;-77
2021/05/09 10:01:09;;;;;;;;;;;;;;;25.76;27.03;100670.09;5029350;28;99313;-77
2021/05/09 10:03:35;;;;;;;;;;;;;;;25.60;27.64;100669.91;5034786;27;96945;-78
2021/05/09 10:06:01;;;;;;;;;;;;;;;25.37;28.10;100665.91;5037780;27;97250;-77
2021/05/09 10:08:27;;;;;;;;;;;;;;;25.38;28.51;100673.03;5041607;27;99002;-77
2021/05/09 10:10:54;;;;;;;;;;;;;;;25.49;27.68;100672.81;5040817;28;101219;-77
2021/05/09 10:13:21;;;;;;;;;;;;;;;25.34;28.34;100671.63;5044517;27;96800;-77
2021/05/09 10:15:47;;;;;;;;;;;;;;;25.13;28.21;100671.03;5037320;27;96911;-78
2021/05/09 10:18:13;;;;;;;;;;;;;;;25.15;28.28;100660.91;5034998;28;97647;-79
2021/05/09 10:20:40;;;;;;;;;;;;;;;25.46;27.85;100665.03;5037039;28;98939;-79
2021/05/09 10:23:05;;;;;;;;;;;;;;;25.52;28.06;100663.56;5036072;27;97022;-79
2021/05/09 10:25:45;;;;;;;;;;;;;;;25.92;27.64;100663.16;5036204;27;96880;-78
2021/05/09 10:28:12;;;;;;;;;;;;;;;25.59;27.72;100651.16;5018540;28;99112;-79
2021/05/09 10:30:45;;;;;;;;;;;;;;;25.84;27.63;100653.09;5037401;28;98840;-81
2021/05/09 10:33:31;;;;;;;;;;;;;;;25.93;27.42;100648.63;5034938;28;96799;-79
2021/05/09 10:35:57;;;;;;;;;;;;;;;25.67;27.98;100652.06;5045703;27;96958;-78
2021/05/09 10:38:23;;;;;;;;;;;;;;;25.55;28.24;100637.03;5040081;28;98903;-78
2021/05/09 10:40:48;;;;;;;;;;;;;;;25.85;27.22;100643.13;5041878;28;98860;-79
2021/05/09 10:43:29;;;;;;;;;;;;;;;25.92;26.99;100636.09;5038146;27;96653;-79
2021/05/09 10:45:55;;;;;;;;;;;;;;;25.29;27.81;100646.88;5037730;27;96900;-78
2021/05/09 10:48:26;;;;;;;;;;;;;;;25.22;28.52;100646.66;5034898;27;98861;-77
2021/05/09 10:51:07;;;;;;;;;;;;;;;25.58;27.71;100644.91;5037716;27;98188;-77
2021/05/09 10:53:40;;;;;;;;;;;;;;;25.67;27.77;100638.53;5034754;28;97638;-77
2021/05/09 10:56:06;;;;;;;;;;;;;;;26.01;27.65;100616.19;5039728;27;96874;-79
2021/05/09 10:58:45;;;;;;;;;;;;;;;25.83;27.53;100621.63;5035165;28;99963;-80
2021/05/09 11:01:20;;;;;;;;;;;;;;;25.94;27.17;100618.66;5033233;27;98837;-78
2021/05/09 11:03:50;;;;;;;;;;;;;;;26.30;26.73;100624.06;5029074;27;97270;-79
2021/05/09 11:06:16;;;;;;;;;;;;;;;25.99;27.19;100629.88;5038720;27;96827;-79
2021/05/09 11:08:56;;;;;;;;;;;;;;;25.63;26.40;100629.03;5038450;27;98867;-79
2021/05/09 11:11:22;;;;;;;;;;;;;;;25.85;26.98;100633.16;5037923;27;98955;-79
2021/05/09 11:14:04;;;;;;;;;;;;;;;25.76;26.55;100621.41;5039659;27;97011;-80
2021/05/09 11:16:35;;;;;;;;;;;;;;;26.42;26.69;100620.94;5040453;28;97225;-78
2021/05/09 11:19:02;;;;;;;;;;;;;;;25.50;27.11;100622.28;5039121;28;97001;-78
2021/05/09 11:21:29;;;;;;;;;;;;;;;25.56;27.40;100617.09;5043130;27;98998;-79
2021/05/09 11:23:55;;;;;;;;;;;;;;;25.57;27.20;100613.44;5042318;27;96933;-78
2021/05/09 11:26:21;;;;;;;;;;;;;;;26.10;26.51;100599.00;5046202;27;96852;-78
2021/05/09 11:29:01;;;;;;;;;;;;;;;26.39;26.60;100604.97;5043740;27;97783;-79
2021/05/09 11:31:28;;;;;;;;;;;;;;;26.34;26.42;100590.22;5042673;27;99250;-78
2021/05/09 11:33:55;;;;;;;;;;;;;;;26.18;27.05;100591.81;5044372;28;96955;-77
2021/05/09 11:36:25;;;;;;;;;;;;;;;26.20;26.89;100584.34;5036997;27;96863;-78
2021/05/09 11:38:50;;;;;;;;;;;;;;;26.40;26.47;100595.84;5042750;28;99100;-78
2021/05/09 11:41:16;;;;;;;;;;;;;;;26.44;26.75;100588.28;5046644;27;98756;-78
2021/05/09 11:43:57;;;;;;;;;;;;;;;26.61;26.59;100586.50;5048232;28;97378;-78
2021/05/09 11:46:23;;;;;;;;;;;;;;;26.27;26.40;100587.31;5039452;27;97328;-78
2021/05/09 11:48:49;;;;;;;;;;;;;;;26.68;25.73;100582.13;5045462;27;99413;-78
2021/05/09 11:51:15;;;;;;;;;;;;;;;26.34;26.14;100577.53;5044582;28;97807;-77
2021/05/09 11:53:41;;;;;;;;;;;;;;;26.34;25.98;100579.38;5043404;28;96677;-77
2021/05/09 11:56:07;;;;;;;;;;;;;;;26.50;25.85;100574.09;5038731;27;97029;-78
2021/05/09 11:58:33;;;;;;;;;;;;;;;26.77;24.79;100570.31;5048900;28;99412;-77
2021/05/09 12:00:59;;;;;;;;;;;;;;;26.62;24.57;100566.50;5059290;28;97752;-77
2021/05/09 12:03:24;;;;;;;;;;;;;;;26.62;24.04;100572.78;5049905;27;98736;-79
2021/05/09 12:05:50;;;;;;;;;;;;;;;26.89;24.68;100566.34;5051000;27;97035;-79
2021/05/09 12:08:18;;;;;;;;;;;;;;;27.06;24.75;100568.06;5050843;27;99197;-79
2021/05/09 12:10:44;;;;;;;;;;;;;;;27.02;24.27;100563.16;5052758;27;97639;-80
2021/05/09 12:13:10;;;;;;;;;;;;;;;26.95;24.81;100562.97;5050108;27;96469;-81
2021/05/09 12:15:37;;;;;;;;;;;;;;;26.68;25.22;100566.72;5039831;28;96539;-79
2021/05/09 12:18:04;;;;;;;;;;;;;;;27.09;25.03;100550.63;5038571;28;97845;-79
2021/05/09 12:20:34;;;;;;;;;;;;;;;26.88;25.26;100560.03;5020555;27;98827;-77
2021/05/09 12:23:01;;;;;;;;;;;;;;;26.80;25.03;100560.00;5033684;27;97164;-77
2021/05/09 12:25:28;;;;;;;;;;;;;;;26.76;25.06;100553.22;5031852;27;96938;-79
2021/05/09 12:27:54;;;;;;;;;;;;;;;26.68;25.23;100549.59;5024707;28;98016;-77
2021/05/09 12:30:20;;;;;;;;;;;;;;;27.06;24.46;100540.97;5029532;28;99113;-77
2021/05/09 12:32:46;;;;;;;;;;;;;;;27.10;24.71;100534.22;5031462;27;96920;-78
2021/05/09 12:35:13;;;;;;;;;;;;;;;27.23;24.58;100533.72;5031013;27;97081;-77